KSAD/SAD METAR and TAF weather

Enter ICAO airport designator
Station Type Date Time Source
KSAD METAR 2020/01/27 10:51 UTC NOAA

KSAD 271051Z AUTO 16004KT 10SM CLR 05/02 A3005 RMK AO2 SLP157 T00500022


Station Type Date Time Source
KSAD Decoded METAR 2020/01/27 10:51 UTC NOAA

SAFFORD MUNICIPAL AIRPORT, AZ, United States (KSAD) 32-51N 109-38W 962M
Jan 27, 2020 - 05:51 AM EST / 2020.01.27 1051 UTC
Wind: from the SSE (160 degrees) at 5 MPH (4 KT):0
Visibility: 10 mile(s):0
Sky conditions: clear
Temperature: 41.0 F (5.0 C)
Dew Point: 36.0 F (2.2 C)
Relative Humidity: 82%
Pressure (altimeter): 30.05 in. Hg (1017 hPa)
ob: KSAD 271051Z AUTO 16004KT 10SM CLR 05/02 A3005 RMK AO2 SLP157 T00500022
cycle: 11

Station Type Date Time Source
KSAD TAF UTC NOAA

Error!

Example: see airport list